Lemon Cove, CA

12:45 PM PDT on September 30, 2014 (GMT -0700)
Three Rivers Historical Society | Change Station
CLOSE
Current Station
Personal Weather Station
Location: Three Rivers, CA
Elevation: 866 ft
Nearby Weather Stations

Elev 866 ft 36.45 °N, 118.90 °W | Updated 23 seconds ago

Clear
Clear
80.7 °F
Feels Like 80 °F
N
5.0
Wind Variable Wind from WSW
Gusts 9.0 mph

Today
High -- | Low -- °F
--% Chance of Precip.
Yesterday
High -- | Low -- °F
Precip. -- in
6:50 AM 6:40 PM
Waxing Crescent, 39% visible
Pressure 29.91 in
Visibility 10.0 miles
Clouds Clear
Heat Index 80 °F
Dew Point 53 °F
Humidity 38%
Rainfall 0.00 in
Snow Depth 0 in , 0 in , 0 in
UV 7 out of 12
Pollen 5.40 out of 12
PM2.5 Good
Flu Activity Not available.
METAR KVIS 301915Z AUTO 00000KT 10SM CLR 26/13 A2991 RMK AO1

More Conditions Fewer Conditions

Pressure 29.91 in
Visibility 10.0 miles
Clouds Clear
Heat Index 80 °F
Dew Point 53 °F
Humidity 38%
Rainfall 0.00 in
Snow Depth 0 in , 0 in , 0 in
UV 7 out of 12
Pollen 5.40 out of 12
PM2.5 Good
Flu Activity Not available.
METAR KVIS 301915Z AUTO 00000KT 10SM CLR 26/13 A2991 RMK AO1

More Conditions Fewer Conditions

10-Day Weather Forecast

Almanac

Astronomy

Sep. 30, 2014 Rise Set
Actual Time 6:50 AM PDT 6:40 PM PDT
Civil Twilight 6:24 AM PDT 7:06 PM PDT
Nautical Twilight 5:54 AM PDT 7:36 PM PDT
Astronomical Twilight 5:24 AM PDT 8:06 PM PDT
Moon 12:55 PM PDT 11:23 PM PDT
Length of Visible Light 12h 41m
Length of Day
11h 50m
Tomorrow will be 2m 17s shorter.
Waxing Crescent, 39% of the Moon is Illuminated
Today
Waxing Crescent
Oct 1
First Quarter
Oct 8
Full
Oct 15
Last Quarter
Oct 23
New

Today's Extremes

State Highs State Lows

Community

WunderPhotos

Upload Photos

1,757,731 photos uploaded!

Nearby

Air Quality

  Air Quality AQ Index Pollutant
Yesterday Good
OZONE
Yesterday Good
PM2.5
Current Good
PM2.5
Tuesday Moderate
OZONE
Wednesday Moderate
OZONE
Thursday Moderate
OZONE
Friday Moderate
OZONE
Saturday Moderate
OZONE

Snow Depth

Station Depth Elevation
Blue Lakes 0 in 8000 ft
CSS Lab 0 in 6900 ft
Monitor Pass 0 in 8350 ft
Heavenly Valley 1 in 8850 ft
Summit Meadow 0 in 9122 ft

Earthquake Activity

City Distance Mag. Time & Date
South Dos Palos, California 102 miles 2.5 9:18 PM PDT
2014-09-29
South Dos Palos, California 102 miles 2.7 8:46 PM PDT
2014-09-28
South Dos Palos, California 101 miles 4.4 1:45 PM PDT
2014-09-28
South Dos Palos, California 102 miles 2.6 12:49 PM PDT
2014-09-28
Minimum magnitude displayed is 2.5.

Coastal Water Temperatures

Place Temperature
No Stations Reporting

Nearby Weather Stations